Time;durP1;ratioP1;P1;durP2;ratioP2;P2;SDS_P1;SDS_P2;PMS_P1;PMS_P2;Temp;Humidity;BMP_temperature;BMP_pressure;BME280_temperature;BME280_humidity;BME280_pressure;Samples;Min_cycle;Max_cycle;Signal;HPM_P1;HPM_P2
2023/03/04 00:00:32;;;;;;;73.30;65.30;;;;;;;-1.31;97.43;97906.50;106843;1279;22570;-90
2023/03/04 00:03:18;;;;;;;72.50;61.70;;;;;;;-1.31;97.38;97905.03;106947;1262;22801;-85
2023/03/04 00:05:46;;;;;;;71.90;64.50;;;;;;;-1.31;97.40;97899.39;106879;1280;22656;-84
2023/03/04 00:08:14;;;;;;;76.00;66.30;;;;;;;-1.28;97.68;97894.95;106888;1280;24380;-87
2023/03/04 00:10:42;;;;;;;80.10;66.50;;;;;;;-1.28;97.63;97895.66;106924;1279;22998;-88
2023/03/04 00:13:10;;;;;;;75.20;65.20;;;;;;;-1.30;97.58;97893.63;106908;1280;24344;-87
2023/03/04 00:15:38;;;;;;;71.90;64.10;;;;;;;-1.30;97.26;97890.42;106852;1275;22664;-87
2023/03/04 00:18:06;;;;;;;76.80;64.30;;;;;;;-1.25;97.55;97894.42;106950;1279;22557;-86
2023/03/04 00:20:34;;;;;;;84.50;70.50;;;;;;;-1.26;97.63;97891.63;106892;1279;24069;-86
2023/03/04 00:23:02;;;;;;;83.70;69.80;;;;;;;-1.28;97.74;97886.04;106827;1279;23901;-88
2023/03/04 00:25:30;;;;;;;84.80;68.70;;;;;;;-1.30;97.57;97881.23;106907;1279;25335;-86
2023/03/04 00:27:58;;;;;;;85.00;71.60;;;;;;;-1.29;97.89;97874.06;106778;1279;22538;-87
2023/03/04 00:30:26;;;;;;;90.20;74.30;;;;;;;-1.26;98.03;97868.21;106843;1279;22535;-86
2023/03/04 00:32:54;;;;;;;88.60;72.50;;;;;;;-1.30;98.02;97864.30;106873;1279;25549;-86
2023/03/04 00:35:23;;;;;;;88.40;71.40;;;;;;;-1.31;97.81;97865.13;106822;1279;22700;-88
2023/03/04 00:37:53;;;;;;;80.50;71.70;;;;;;;-1.32;97.92;97864.12;106874;1257;25671;-88
2023/03/04 00:40:21;;;;;;;80.30;71.20;;;;;;;-1.34;97.96;97859.65;106832;1280;25453;-86
2023/03/04 00:42:49;;;;;;;88.50;74.90;;;;;;;-1.31;98.04;97860.14;106802;1280;23353;-88
2023/03/04 00:45:17;;;;;;;92.30;75.30;;;;;;;-1.32;98.25;97859.70;106816;1280;25521;-88
2023/03/04 00:47:46;;;;;;;92.70;72.30;;;;;;;-1.33;97.96;97860.77;106827;1275;22542;-88
2023/03/04 00:50:14;;;;;;;84.80;70.30;;;;;;;-1.35;98.14;97851.69;107075;1280;23286;-88
2023/03/04 00:52:42;;;;;;;79.80;71.20;;;;;;;-1.35;98.31;97850.59;107174;1280;22537;-86
2023/03/04 00:55:10;;;;;;;93.40;74.10;;;;;;;-1.34;98.45;97841.52;107071;1280;22655;-87
2023/03/04 00:57:38;;;;;;;89.30;74.80;;;;;;;-1.34;98.40;97842.37;106937;1261;24264;-87
2023/03/04 01:00:07;;;;;;;90.10;73.00;;;;;;;-1.35;98.20;97834.40;106897;1279;22559;-87
2023/03/04 01:02:35;;;;;;;82.10;71.50;;;;;;;-1.36;98.27;97831.84;106832;1280;22518;-88
2023/03/04 01:05:04;;;;;;;83.20;71.00;;;;;;;-1.36;98.41;97825.18;106883;1280;22540;-88
2023/03/04 01:07:33;;;;;;;86.00;71.40;;;;;;;-1.31;98.50;97817.43;106848;1268;22946;-88
2023/03/04 01:10:01;;;;;;;90.60;75.40;;;;;;;-1.34;98.38;97805.27;106897;1270;22901;-87
2023/03/04 01:12:29;;;;;;;85.60;70.00;;;;;;;-1.36;98.34;97794.41;106812;1279;24564;-87
2023/03/04 01:14:59;;;;;;;85.60;70.10;;;;;;;-1.37;98.42;97791.85;106832;1278;22697;-86
2023/03/04 01:17:26;;;;;;;82.10;69.90;;;;;;;-1.37;98.39;97785.34;106717;1280;24218;-88
2023/03/04 01:19:54;;;;;;;81.40;69.60;;;;;;;-1.36;98.69;97784.07;106807;1279;23289;-87
2023/03/04 01:22:22;;;;;;;94.60;74.10;;;;;;;-1.35;98.53;97779.22;106833;1280;22536;-86
2023/03/04 01:24:50;;;;;;;81.00;68.80;;;;;;;-1.39;98.51;97778.95;106890;1262;24351;-87
2023/03/04 01:27:19;;;;;;;75.20;67.20;;;;;;;-1.41;98.52;97769.72;106908;1280;22528;-86
2023/03/04 01:29:47;;;;;;;81.80;67.70;;;;;;;-1.37;98.49;97766.85;107088;1279;22623;-85
2023/03/04 01:32:15;;;;;;;76.90;65.00;;;;;;;-1.35;98.80;97769.02;106821;1280;25287;-88
2023/03/04 01:34:43;;;;;;;75.10;66.20;;;;;;;-1.34;98.98;97767.02;106882;1280;24397;-89
2023/03/04 01:37:12;;;;;;;80.90;70.00;;;;;;;-1.35;98.82;97762.27;106941;1280;25245;-88
2023/03/04 01:39:40;;;;;;;75.80;67.80;;;;;;;-1.38;98.64;97754.38;106968;1279;25523;-87
2023/03/04 01:42:33;;;;;;;78.70;66.50;;;;;;;-1.39;98.55;97752.70;106849;1279;23386;-88
2023/03/04 01:45:02;;;;;;;77.00;68.70;;;;;;;-1.34;98.91;97749.68;106973;1279;25376;-88
2023/03/04 01:47:33;;;;;;;78.60;68.20;;;;;;;-1.33;98.88;97753.77;107044;1279;24206;-88
2023/03/04 01:50:06;;;;;;;77.00;66.50;;;;;;;-1.34;99.05;97751.65;106839;1267;24242;-86
2023/03/04 01:52:34;;;;;;;74.30;66.00;;;;;;;-1.34;98.95;97746.40;106985;1279;23049;-86
2023/03/04 01:55:13;;;;;;;68.90;61.60;;;;;;;-1.35;99.15;97743.80;107874;1279;22555;-87
2023/03/04 01:57:41;;;;;;;71.80;63.40;;;;;;;-1.32;98.92;97746.23;109570;1279;22521;-84
2023/03/04 02:00:30;;;;;;;84.50;69.10;;;;;;;-1.29;98.99;97738.92;109441;1279;22910;-85
2023/03/04 02:03:08;;;;;;;71.70;63.90;;;;;;;-1.30;98.98;97729.74;110054;1275;22633;-85
2023/03/04 02:05:40;;;;;;;71.40;63.70;;;;;;;-1.28;98.98;97733.61;109925;1279;22093;-87
2023/03/04 02:08:09;;;;;;;70.00;62.50;;;;;;;-1.25;99.24;97728.94;107702;1279;25352;-87
2023/03/04 02:10:38;;;;;;;68.20;61.30;;;;;;;-1.25;98.92;97728.36;106766;1279;22751;-88
2023/03/04 02:13:06;;;;;;;69.50;62.40;;;;;;;-1.20;98.95;97730.85;106881;1279;22563;-87
2023/03/04 02:15:34;;;;;;;69.40;62.00;;;;;;;-1.18;98.75;97728.54;106841;1279;22657;-86
2023/03/04 02:18:13;;;;;;;67.60;60.60;;;;;;;-1.22;98.64;97724.23;106828;1279;24401;-86
2023/03/04 02:20:53;;;;;;;68.50;61.40;;;;;;;-1.21;98.86;97729.52;106781;1279;25265;-86
2023/03/04 02:23:36;;;;;;;63.10;56.50;;;;;;;-1.22;98.65;97725.15;106821;1279;22559;-86
2023/03/04 02:26:16;;;;;;;68.00;61.00;;;;;;;-1.23;98.51;97724.02;106786;1279;24058;-86
2023/03/04 02:28:48;;;;;;;72.50;64.80;;;;;;;-1.24;98.48;97720.59;106885;1279;22596;-84
2023/03/04 02:31:37;;;;;;;66.80;59.70;;;;;;;-1.23;98.43;97714.07;106834;1279;25345;-86
2023/03/04 02:34:19;;;;;;;65.20;58.50;;;;;;;-1.25;98.39;97711.48;106835;1279;22643;-88
2023/03/04 02:36:49;;;;;;;65.30;58.70;;;;;;;-1.25;98.51;97704.66;107005;1279;22531;-85
2023/03/04 02:39:20;;;;;;;66.70;59.50;;;;;;;-1.21;98.50;97701.90;106867;1279;24468;-87
2023/03/04 02:41:53;;;;;;;68.90;61.90;;;;;;;-1.22;98.30;97695.70;106778;1279;22567;-86
2023/03/04 02:44:24;;;;;;;71.10;63.60;;;;;;;-1.23;98.30;97696.08;106943;1279;24377;-86
2023/03/04 02:46:52;;;;;;;64.50;57.70;;;;;;;-1.25;98.03;97685.98;106905;1279;22524;-86
2023/03/04 02:49:21;;;;;;;63.20;56.90;;;;;;;-1.24;98.20;97673.65;106840;1279;22989;-85
2023/03/04 02:51:59;;;;;;;65.40;58.70;;;;;;;-1.23;98.17;97674.00;106919;1279;22713;-86
2023/03/04 02:54:28;;;;;;;66.50;59.80;;;;;;;-1.22;98.24;97675.04;106845;1279;24263;-89
2023/03/04 02:57:00;;;;;;;66.70;59.80;;;;;;;-1.22;98.13;97673.70;106906;1279;22573;-88
2023/03/04 02:59:28;;;;;;;65.50;58.40;;;;;;;-1.23;98.02;97667.98;106917;1276;24476;-87
2023/03/04 03:01:56;;;;;;;64.50;57.40;;;;;;;-1.22;98.23;97671.38;106870;1279;22600;-89
2023/03/04 03:04:25;;;;;;;66.60;59.70;;;;;;;-1.21;98.05;97665.30;106938;1279;22522;-88
2023/03/04 03:06:54;;;;;;;66.90;60.00;;;;;;;-1.19;98.25;97667.86;106900;1279;22623;-87
2023/03/04 03:09:22;;;;;;;66.80;59.80;;;;;;;-1.19;98.09;97664.45;106793;1279;22541;-89
2023/03/04 03:11:50;;;;;;;68.30;61.30;;;;;;;-1.21;97.90;97664.16;106874;1278;25472;-89
2023/03/04 03:14:20;;;;;;;63.60;56.90;;;;;;;-1.21;98.06;97662.94;106849;1279;22577;-90
2023/03/04 03:16:48;;;;;;;69.30;62.20;;;;;;;-1.18;97.97;97664.63;106843;1279;24250;-89
2023/03/04 03:19:16;;;;;;;73.20;65.50;;;;;;;-1.20;97.95;97661.86;106808;1279;22570;-87
2023/03/04 03:21:44;;;;;;;70.70;63.40;;;;;;;-1.24;98.14;97655.84;106854;1280;22640;-89
2023/03/04 03:24:12;;;;;;;68.90;62.00;;;;;;;-1.25;97.96;97655.23;106871;1280;22726;-88
2023/03/04 03:26:40;;;;;;;66.70;59.70;;;;;;;-1.25;97.98;97650.95;106838;1279;22592;-89
2023/03/04 03:29:08;;;;;;;71.00;63.70;;;;;;;-1.26;98.25;97658.23;106940;1279;26722;-88
2023/03/04 03:31:36;;;;;;;72.50;64.60;;;;;;;-1.26;98.04;97663.98;106985;1279;23362;-88
2023/03/04 03:34:04;;;;;;;70.00;62.80;;;;;;;-1.28;97.90;97657.21;106943;1280;24263;-89
2023/03/04 03:36:32;;;;;;;67.10;59.90;;;;;;;-1.29;97.95;97656.61;106872;1279;23039;-89
2023/03/04 03:39:01;;;;;;;68.40;61.30;;;;;;;-1.27;97.99;97657.75;106828;1280;22534;-88
2023/03/04 03:41:29;;;;;;;70.30;63.20;;;;;;;-1.24;98.13;97654.05;106891;1279;25585;-88
2023/03/04 03:43:57;;;;;;;72.40;65.10;;;;;;;-1.24;98.06;97653.36;107149;1280;23633;-87
2023/03/04 03:46:27;;;;;;;65.80;58.80;;;;;;;-1.26;97.93;97657.90;106918;1280;22643;-87
2023/03/04 03:48:54;;;;;;;64.00;57.40;;;;;;;-1.28;98.14;97649.50;106881;1280;22557;-87
2023/03/04 03:51:23;;;;;;;60.40;54.50;;;;;;;-1.28;98.13;97650.66;106918;1279;25370;-87
2023/03/04 03:53:51;;;;;;;64.60;57.20;;;;;;;-1.28;98.12;97651.71;106861;1280;22858;-87
2023/03/04 03:56:18;;;;;;;71.10;61.10;;;;;;;-1.30;97.97;97645.07;106903;1279;25534;-87
2023/03/04 03:58:46;;;;;;;69.20;61.80;;;;;;;-1.29;97.96;97644.77;107047;1280;22554;-87
2023/03/04 04:01:14;;;;;;;67.30;60.50;;;;;;;-1.30;97.83;97641.69;107388;1279;22508;-87
2023/03/04 04:03:42;;;;;;;69.90;62.80;;;;;;;-1.29;98.14;97644.13;106919;1276;24077;-87
2023/03/04 04:06:10;;;;;;;77.00;68.90;;;;;;;-1.30;98.17;97643.79;106859;1279;22538;-88
2023/03/04 04:08:38;;;;;;;75.20;67.30;;;;;;;-1.33;98.20;97647.73;107333;1279;22642;-88
2023/03/04 04:11:09;;;;;;;76.70;67.20;;;;;;;-1.36;98.17;97641.05;107703;1279;22619;-86
2023/03/04 04:13:38;;;;;;;70.90;63.10;;;;;;;-1.37;98.00;97644.11;107971;1279;22532;-86
2023/03/04 04:16:07;;;;;;;66.30;59.50;;;;;;;-1.37;98.26;97645.33;107298;1276;22639;-88
2023/03/04 04:18:35;;;;;;;67.30;60.40;;;;;;;-1.34;98.47;97648.15;107213;1279;24767;-88
2023/03/04 04:21:04;;;;;;;70.60;63.40;;;;;;;-1.33;98.47;97646.14;107591;1279;22528;-88
2023/03/04 04:23:32;;;;;;;65.10;58.60;;;;;;;-1.36;98.41;97643.02;107792;1279;22547;-90
2023/03/04 04:26:00;;;;;;;62.40;56.20;;;;;;;-1.35;98.58;97647.64;106993;1279;22654;-88
2023/03/04 04:28:27;;;;;;;60.40;54.30;;;;;;;-1.36;98.48;97643.18;106938;1279;23153;-88
2023/03/04 04:30:55;;;;;;;61.90;55.70;;;;;;;-1.34;98.57;97638.36;106935;1279;25969;-86
2023/03/04 04:33:24;;;;;;;65.10;58.10;;;;;;;-1.37;98.20;97639.73;106956;1279;22641;-87
2023/03/04 04:35:52;;;;;;;59.70;53.70;;;;;;;-1.40;97.93;97636.96;106899;1279;24257;-86
2023/03/04 04:38:20;;;;;;;60.30;54.10;;;;;;;-1.43;97.99;97637.73;106982;1279;22548;-86
2023/03/04 04:40:48;;;;;;;58.20;52.40;;;;;;;-1.42;98.20;97636.91;106949;1257;24233;-88
2023/03/04 04:43:16;;;;;;;58.60;52.80;;;;;;;-1.39;98.11;97635.13;106888;1279;23163;-86
2023/03/04 04:45:44;;;;;;;62.20;55.60;;;;;;;-1.42;98.06;97630.90;107069;1279;22642;-88
2023/03/04 04:48:11;;;;;;;59.00;52.90;;;;;;;-1.43;97.79;97634.79;106886;1279;22571;-88
2023/03/04 04:50:39;;;;;;;56.00;50.40;;;;;;;-1.45;97.83;97627.85;106975;1279;22831;-89
2023/03/04 04:53:12;;;;;;;55.90;50.30;;;;;;;-1.46;97.64;97623.81;107222;1279;25478;-85
2023/03/04 04:55:40;;;;;;;59.00;53.00;;;;;;;-1.45;97.82;97623.88;107628;1279;22978;-89
2023/03/04 04:58:08;;;;;;;60.30;54.10;;;;;;;-1.44;97.80;97622.90;107002;1263;24221;-86
2023/03/04 05:00:36;;;;;;;60.20;54.00;;;;;;;-1.47;97.44;97623.52;106816;1279;25370;-87
2023/03/04 05:03:04;;;;;;;53.60;48.20;;;;;;;-1.47;97.33;97623.15;106919;1279;25300;-86
2023/03/04 05:05:32;;;;;;;53.80;48.30;;;;;;;-1.47;97.34;97623.60;106884;1279;25255;-85
2023/03/04 05:08:00;;;;;;;54.00;48.40;;;;;;;-1.47;97.10;97630.51;106991;1279;24367;-85
2023/03/04 05:10:28;;;;;;;57.30;51.40;;;;;;;-1.49;97.10;97621.14;107399;1279;26705;-85
2023/03/04 05:12:56;;;;;;;56.80;51.00;;;;;;;-1.53;97.24;97626.45;107209;1279;23271;-84
2023/03/04 05:15:24;;;;;;;53.80;48.40;;;;;;;-1.53;97.16;97627.71;107438;1279;22693;-85
2023/03/04 05:17:52;;;;;;;48.80;43.70;;;;;;;-1.57;97.10;97627.71;107223;1279;22652;-85
2023/03/04 05:20:22;;;;;;;53.60;48.30;;;;;;;-1.57;97.08;97618.95;107927;1279;22578;-87
2023/03/04 05:22:51;;;;;;;56.00;50.30;;;;;;;-1.60;96.75;97614.34;108025;1279;25479;-86
2023/03/04 05:25:19;;;;;;;58.70;52.30;;;;;;;-1.66;96.79;97615.35;107645;1279;23160;-85
2023/03/04 05:27:47;;;;;;;57.60;51.60;;;;;;;-1.65;97.15;97619.16;107553;1279;22629;-86
2023/03/04 05:30:14;;;;;;;56.40;50.70;;;;;;;-1.63;97.14;97627.38;107712;1279;24519;-87
2023/03/04 05:32:42;;;;;;;63.00;56.30;;;;;;;-1.63;97.06;97631.64;107390;1279;23374;-85
2023/03/04 05:35:10;;;;;;;59.30;53.50;;;;;;;-1.66;97.03;97630.02;107200;1279;22615;-88
2023/03/04 05:37:38;;;;;;;59.40;53.50;;;;;;;-1.66;97.17;97631.20;107201;1279;22536;-84
2023/03/04 05:40:08;;;;;;;57.90;52.20;;;;;;;-1.65;97.06;97625.41;107515;1279;22594;-85
2023/03/04 05:42:36;;;;;;;59.10;53.30;;;;;;;-1.68;97.27;97623.66;106834;1279;22534;-86
2023/03/04 05:45:04;;;;;;;63.40;56.60;;;;;;;-1.67;97.27;97617.48;106904;1279;22590;-87
2023/03/04 05:47:32;;;;;;;62.10;55.50;;;;;;;-1.68;97.07;97620.84;106894;1279;25433;-85
2023/03/04 05:50:00;;;;;;;60.20;54.10;;;;;;;-1.69;97.23;97618.28;106981;1279;23880;-88
2023/03/04 05:52:28;;;;;;;154.60;74.00;;;;;;;-1.73;97.20;97613.17;107070;1279;24288;-88
2023/03/04 05:54:56;;;;;;;74.90;62.70;;;;;;;-1.71;97.29;97610.05;107551;1279;24716;-87
2023/03/04 05:57:24;;;;;;;63.40;57.00;;;;;;;-1.70;97.37;97617.73;109031;1279;22599;-87
2023/03/04 06:04:46;;;;;;;67.50;60.50;;;;;;;-1.74;97.31;97619.42;107008;1279;22522;-90
2023/03/04 06:07:14;;;;;;;68.40;60.50;;;;;;;-1.72;97.48;97621.48;107060;1279;22561;-88
2023/03/04 06:09:44;;;;;;;71.20;63.50;;;;;;;-1.74;97.31;97622.56;107021;1278;25961;-88
2023/03/04 06:12:12;;;;;;;68.00;60.80;;;;;;;-1.74;97.33;97626.13;106919;1279;22550;-90
2023/03/04 06:14:40;;;;;;;62.60;56.20;;;;;;;-1.75;97.18;97624.11;107157;1279;22645;-88
2023/03/04 06:17:08;;;;;;;62.00;55.80;;;;;;;-1.73;97.44;97625.63;107142;1279;25242;-86
2023/03/04 06:19:36;;;;;;;65.30;58.50;;;;;;;-1.75;97.34;97620.77;106895;1279;22593;-86
2023/03/04 06:22:04;;;;;;;66.10;59.40;;;;;;;-1.76;96.96;97632.17;106910;1279;25231;-86
2023/03/04 06:24:33;;;;;;;62.70;56.10;;;;;;;-1.77;96.78;97630.48;106938;1279;22874;-85
2023/03/04 06:27:01;;;;;;;61.60;55.40;;;;;;;-1.77;96.83;97626.05;106840;1279;25494;-86
2023/03/04 06:29:30;;;;;;;65.20;57.50;;;;;;;-1.77;96.87;97613.17;106884;1279;25434;-85
2023/03/04 06:31:58;;;;;;;65.50;58.80;;;;;;;-1.74;96.57;97619.54;106840;1279;22637;-87
2023/03/04 06:38:36;;;;;;;61.50;55.30;;;;;;;-1.70;96.54;97610.91;106844;1279;24558;-85
2023/03/04 06:41:07;;;;;;;66.70;59.30;;;;;;;-1.69;96.46;97606.55;107105;1279;24288;-85
2023/03/04 06:43:36;;;;;;;65.20;58.20;;;;;;;-1.70;96.34;97617.20;107526;1279;22655;-84
2023/03/04 06:46:05;;;;;;;63.40;56.60;;;;;;;-1.68;96.29;97617.89;107014;1279;22517;-87
2023/03/04 06:48:34;;;;;;;61.80;55.60;;;;;;;-1.66;96.49;97615.67;107169;1279;23359;-88
2023/03/04 06:51:06;;;;;;;62.90;56.50;;;;;;;-1.64;96.47;97620.41;106964;1279;24398;-87
2023/03/04 06:53:35;;;;;;;64.50;57.80;;;;;;;-1.65;96.20;97641.67;106972;1270;24533;-88
2023/03/04 06:56:04;;;;;;;62.70;55.90;;;;;;;-1.66;96.01;97638.23;106970;1279;22798;-84
2023/03/04 06:58:32;;;;;;;67.50;60.80;;;;;;;-1.65;95.96;97629.80;106887;1279;22689;-85
2023/03/04 07:01:17;;;;;;;67.40;59.90;;;;;;;-1.58;96.15;97630.65;106862;1279;22576;-86
2023/03/04 07:03:47;;;;;;;65.90;59.10;;;;;;;-1.62;95.87;97647.73;106784;1279;22525;-88
2023/03/04 07:06:18;;;;;;;67.60;60.70;;;;;;;-1.64;95.64;97637.38;107250;1276;22520;-92
2023/03/04 07:08:46;;;;;;;63.90;57.40;;;;;;;-1.65;95.86;97639.36;107275;1279;22529;-88
2023/03/04 07:11:15;;;;;;;67.80;61.20;;;;;;;-1.65;95.89;97637.77;107257;1279;26567;-90
2023/03/04 07:13:43;;;;;;;65.30;58.20;;;;;;;-1.67;95.87;97640.20;107670;1279;22612;-89
2023/03/04 07:16:16;;;;;;;63.20;56.60;;;;;;;-1.67;95.77;97645.12;107173;1279;22660;-88
2023/03/04 07:18:46;;;;;;;63.90;57.30;;;;;;;-1.65;96.01;97638.95;108852;1279;22564;-87
2023/03/04 07:21:15;;;;;;;66.80;60.20;;;;;;;-1.64;95.84;97640.07;110201;1259;22577;-90
2023/03/04 07:23:44;;;;;;;69.60;62.20;;;;;;;-1.61;95.99;97641.83;110233;1279;22581;-87
2023/03/04 07:26:12;;;;;;;67.00;60.20;;;;;;;-1.60;95.98;97644.08;109089;1279;22569;-86
2023/03/04 07:28:41;;;;;;;64.80;58.50;;;;;;;-1.53;96.25;97648.48;108517;1279;22910;-90
2023/03/04 07:31:29;;;;;;;71.30;64.00;;;;;;;-1.49;95.82;97639.92;109540;1279;22622;-91
2023/03/04 07:34:02;;;;;;;61.20;55.00;;;;;;;-1.48;95.54;97634.71;108332;1279;25947;-86
2023/03/04 07:36:32;;;;;;;61.70;55.50;;;;;;;-1.46;95.25;97636.71;107492;1276;22731;-90
2023/03/04 07:39:00;;;;;;;60.30;54.20;;;;;;;-1.42;95.15;97635.17;107635;1279;22551;-87
2023/03/04 07:41:28;;;;;;;57.10;51.70;;;;;;;-1.39;95.07;97646.44;106974;1279;25265;-90
2023/03/04 07:43:58;;;;;;;63.80;57.30;;;;;;;-1.37;94.74;97641.52;106944;1279;23428;-84
2023/03/04 07:46:26;;;;;;;67.00;60.20;;;;;;;-1.41;94.50;97633.13;107132;1279;22737;-89
2023/03/04 07:48:55;;;;;;;69.40;62.00;;;;;;;-1.40;94.44;97642.27;107336;1279;22529;-89
2023/03/04 07:51:25;;;;;;;70.90;64.00;;;;;;;-1.36;94.30;97644.44;107150;1279;25157;-89
2023/03/04 07:54:19;;;;;;;68.70;62.10;;;;;;;-1.37;94.05;97638.67;106930;1279;22639;-89
2023/03/04 07:56:47;;;;;;;72.90;65.40;;;;;;;-1.39;93.69;97639.84;106969;1279;25655;-86
2023/03/04 07:59:15;;;;;;;66.80;60.10;;;;;;;-1.41;93.82;97644.97;106913;1279;24241;-88
2023/03/04 08:02:34;;;;;;;74.90;67.30;;;;;;;-1.38;93.83;97640.82;107077;1279;25557;-88
2023/03/04 08:05:03;;;;;;;61.00;55.30;;;;;;;-1.33;93.49;97643.34;106882;1279;22518;-88
2023/03/04 08:07:31;;;;;;;57.80;52.40;;;;;;;-1.32;93.52;97644.41;106916;1280;25612;-88
2023/03/04 08:09:59;;;;;;;55.00;49.90;;;;;;;-1.33;92.81;97650.33;107001;1279;22570;-88
2023/03/04 08:12:28;;;;;;;55.70;50.30;;;;;;;-1.34;92.68;97648.98;106946;1280;24402;-90
2023/03/04 08:14:56;;;;;;;58.50;52.40;;;;;;;-1.33;92.81;97652.39;106966;1279;24550;-87
2023/03/04 08:17:25;;;;;;;70.60;63.40;;;;;;;-1.31;92.79;97655.71;107627;1279;22539;-88
2023/03/04 08:19:53;;;;;;;67.20;60.50;;;;;;;-1.28;92.82;97655.20;108228;1279;22571;-89
2023/03/04 08:22:21;;;;;;;62.40;56.20;;;;;;;-1.26;92.31;97654.98;106994;1276;24877;-86
2023/03/04 08:24:49;;;;;;;58.80;53.10;;;;;;;-1.27;91.96;97657.14;106980;1279;22514;-87
2023/03/04 08:27:27;;;;;;;57.20;51.60;;;;;;;-1.27;92.26;97660.77;106944;1279;22644;-83
2023/03/04 08:29:55;;;;;;;60.80;54.90;;;;;;;-1.26;92.34;97659.70;106952;1257;24431;-86
2023/03/04 08:32:23;;;;;;;58.00;52.60;;;;;;;-1.22;91.84;97666.09;106940;1276;22518;-86
2023/03/04 08:35:19;;;;;;;53.30;48.30;;;;;;;-1.22;91.73;97661.38;106997;1279;24341;-86
2023/03/04 08:37:47;;;;;;;57.80;52.40;;;;;;;-1.19;91.68;97658.80;106903;1279;22601;-89
2023/03/04 08:40:16;;;;;;;58.10;52.70;;;;;;;-1.18;91.34;97663.02;107055;1279;22538;-86
2023/03/04 08:42:44;;;;;;;62.50;56.50;;;;;;;-1.19;91.29;97662.34;107491;1279;22559;-86
2023/03/04 08:46:12;;;;;;;59.70;53.90;;;;;;;-1.21;90.99;97661.19;107306;1279;23924;-87
2023/03/04 08:48:57;;;;;;;56.30;51.00;;;;;;;-1.19;91.56;97670.02;107004;1279;24250;-86
2023/03/04 08:51:25;;;;;;;61.10;55.10;;;;;;;-1.14;91.63;97672.35;107306;1279;24079;-84
2023/03/04 08:54:14;;;;;;;54.20;49.10;;;;;;;-1.11;91.35;97673.00;107113;1264;23118;-88
2023/03/04 08:56:42;;;;;;;59.50;53.60;;;;;;;-1.09;91.03;97670.23;107051;1279;22554;-86
2023/03/04 08:59:10;;;;;;;48.60;44.00;;;;;;;-1.08;90.74;97676.44;106946;1279;25348;-87
2023/03/04 09:01:38;;;;;;;48.50;44.10;;;;;;;-1.07;90.73;97668.40;106955;1279;22529;-86
2023/03/04 09:04:06;;;;;;;52.20;47.10;;;;;;;-1.02;90.65;97662.59;106921;1279;25448;-88
2023/03/04 09:06:34;;;;;;;51.80;46.60;;;;;;;-0.98;90.30;97660.04;107469;1279;22642;-90
2023/03/04 09:09:05;;;;;;;55.20;49.40;;;;;;;-0.97;89.24;97658.05;107662;1279;22491;-92
2023/03/04 09:11:34;;;;;;;49.80;44.60;;;;;;;-0.95;89.45;97663.59;107325;1279;22820;-89
2023/03/04 09:14:02;;;;;;;56.40;49.00;;;;;;;-0.90;89.48;97653.27;107577;1278;22613;-88
2023/03/04 09:16:30;;;;;;;50.70;46.00;;;;;;;-0.86;89.47;97658.55;107151;1279;22795;-92
2023/03/04 09:18:59;;;;;;;53.20;48.10;;;;;;;-0.83;88.81;97654.23;107591;1279;22575;-90
2023/03/04 09:21:28;;;;;;;48.30;43.40;;;;;;;-0.82;88.81;97658.91;107606;1279;22628;-89
2023/03/04 09:23:56;;;;;;;51.50;46.50;;;;;;;-0.78;88.81;97653.59;108958;1279;22599;-88
2023/03/04 09:26:27;;;;;;;46.60;42.30;;;;;;;-0.75;88.41;97665.94;109063;1276;22670;-89
2023/03/04 09:28:58;;;;;;;50.70;45.80;;;;;;;-0.76;88.18;97659.60;107705;1279;25376;-88
2023/03/04 09:31:28;;;;;;;47.60;42.70;;;;;;;-0.77;87.79;97668.16;106971;1279;22580;-88
2023/03/04 09:33:59;;;;;;;42.60;38.50;;;;;;;-0.75;88.07;97662.55;107642;1279;22679;-91
2023/03/04 09:36:27;;;;;;;52.30;47.00;;;;;;;-0.73;88.19;97654.98;107426;1279;23389;-85
2023/03/04 09:39:02;;;;;;;52.70;47.70;;;;;;;-0.72;88.08;97659.08;107542;1279;23309;-91
2023/03/04 09:41:38;;;;;;;52.10;47.10;;;;;;;-0.72;87.79;97659.23;108386;1279;23004;-91
2023/03/04 09:44:28;;;;;;;50.80;45.80;;;;;;;-0.70;87.89;97662.34;109230;1279;24200;-93
2023/03/04 09:47:01;;;;;;;47.40;42.70;;;;;;;-0.70;88.00;97651.34;108302;1279;22601;-91
2023/03/04 09:49:30;;;;;;;49.60;44.90;;;;;;;-0.63;87.90;97652.90;107165;1279;25317;-87
2023/03/04 09:52:07;;;;;;;52.70;47.80;;;;;;;-0.63;87.53;97651.63;107390;1279;22645;-90
2023/03/04 09:55:16;;;;;;;55.80;50.20;;;;;;;-0.65;87.20;97649.15;107779;1279;25274;-89
2023/03/04 09:57:53;;;;;;;52.80;47.70;;;;;;;-0.66;87.41;97652.21;109858;1254;24256;-91
2023/03/04 10:00:34;;;;;;;57.50;52.20;;;;;;;-0.67;87.63;97648.33;107167;1275;23157;-90
2023/03/04 10:03:11;;;;;;;54.10;49.10;;;;;;;-0.69;87.53;97645.84;107490;1276;23200;-90
2023/03/04 10:05:55;;;;;;;55.10;50.00;;;;;;;-0.65;87.23;97650.48;107275;1276;23314;-88
2023/03/04 10:08:35;;;;;;;53.10;47.80;;;;;;;-0.66;87.49;97648.56;107101;1276;25402;-85
2023/03/04 10:11:12;;;;;;;49.10;44.60;;;;;;;-0.62;87.80;97650.80;107338;1276;22633;-87
2023/03/04 10:14:18;;;;;;;52.40;47.70;;;;;;;-0.60;87.87;97643.67;107412;1276;25272;-86
2023/03/04 10:17:14;;;;;;;54.90;49.90;;;;;;;-0.58;87.76;97643.91;106601;1285;22538;-85
2023/03/04 10:19:55;;;;;;;50.60;45.80;;;;;;;-0.59;87.38;97643.41;106678;1285;24354;-86
2023/03/04 10:22:37;;;;;;;50.60;45.80;;;;;;;-0.62;87.42;97639.31;106575;1272;203510;-82
2023/03/04 10:25:19;;;;;;;53.70;48.90;;;;;;;-0.58;87.86;97638.23;106601;1285;25384;-84
2023/03/04 10:27:53;;;;;;;51.40;46.90;;;;;;;-0.56;87.68;97631.46;106719;1285;22545;-84
2023/03/04 10:31:00;;;;;;;53.70;48.30;;;;;;;-0.55;87.55;97631.85;106563;1285;22554;-83
2023/03/04 10:33:31;;;;;;;49.50;45.10;;;;;;;-0.56;87.33;97629.34;106540;1285;22539;-84
2023/03/04 10:36:29;;;;;;;54.70;49.70;;;;;;;-0.57;87.83;97625.41;106483;1285;25488;-83
2023/03/04 10:39:01;;;;;;;57.70;52.50;;;;;;;-0.54;88.23;97615.55;106557;1285;24258;-83
2023/03/04 10:41:30;;;;;;;63.60;57.70;;;;;;;-0.49;88.22;97618.10;106495;1286;22609;-83
2023/03/04 10:43:58;;;;;;;49.50;45.10;;;;;;;-0.47;88.00;97622.59;106561;1285;22818;-84
2023/03/04 10:46:26;;;;;;;48.10;43.80;;;;;;;-0.48;88.18;97612.61;106500;1285;23916;-84
2023/03/04 10:48:55;;;;;;;53.20;48.30;;;;;;;-0.49;88.41;97609.52;106565;1285;22603;-85
2023/03/04 10:51:28;;;;;;;57.20;51.90;;;;;;;-0.49;88.20;97611.65;106527;1285;22542;-86
2023/03/04 10:54:30;;;;;;;53.30;48.30;;;;;;;-0.49;88.41;97607.46;107275;1276;22536;-84
2023/03/04 10:57:03;;;;;;;56.10;50.90;;;;;;;-0.48;88.60;97599.55;107123;1276;22536;-92
2023/03/04 10:59:54;;;;;;;56.70;51.30;;;;;;;-0.47;88.72;97593.05;107719;1276;25493;-91
2023/03/04 11:02:30;;;;;;;61.80;56.20;;;;;;;-0.47;88.56;97598.71;107629;1276;22573;-91
2023/03/04 11:05:13;;;;;;;61.10;55.40;;;;;;;-0.50;88.79;97596.65;108085;1276;24244;-92
2023/03/04 11:07:48;;;;;;;60.80;54.90;;;;;;;-0.47;89.27;97595.45;107479;1276;22613;-87
2023/03/04 11:10:27;;;;;;;67.80;61.30;;;;;;;-0.47;89.23;97597.88;108427;1276;22545;-86
2023/03/04 11:13:23;;;;;;;66.30;59.60;;;;;;;-0.50;89.18;97593.40;109384;1276;22197;-85
2023/03/04 11:15:56;;;;;;;65.00;59.10;;;;;;;-0.50;89.43;97595.11;109204;1276;22610;-88
2023/03/04 11:18:48;;;;;;;71.50;64.70;;;;;;;-0.48;90.00;97591.93;109735;1276;22535;-84
2023/03/04 11:21:25;;;;;;;120.80;99.60;;;;;;;-0.50;89.84;97586.11;109313;1276;22538;-86
2023/03/04 11:24:00;;;;;;;125.40;100.20;;;;;;;-0.53;89.87;97586.63;109023;1276;24025;-85
2023/03/04 11:26:29;;;;;;;83.90;75.70;;;;;;;-0.55;90.33;97581.36;107563;1276;22564;-86
2023/03/04 11:29:22;;;;;;;81.50;73.60;;;;;;;-0.60;90.56;97577.70;109069;1276;25069;-86
2023/03/04 11:36:59;;;;;;;86.30;77.30;;;;;;;-0.77;90.79;97566.20;107222;1276;24228;-85
2023/03/04 11:39:37;;;;;;;89.50;76.60;;;;;;;-0.80;91.54;97562.98;107264;1276;25344;-86
2023/03/04 11:42:20;;;;;;;85.30;76.30;;;;;;;-0.83;91.70;97562.23;107222;1276;22547;-87
2023/03/04 11:44:48;;;;;;;99.20;82.10;;;;;;;-0.90;91.77;97558.28;107252;1276;22531;-88